Time;durP1;ratioP1;P1;durP2;ratioP2;P2;SDS_P1;SDS_P2;PMS_P1;PMS_P2;Temp;Humidity;BMP_temperature;BMP_pressure;BME280_temperature;BME280_humidity;BME280_pressure;Samples;Min_cycle;Max_cycle;Signal;HPM_P1;HPM_P2
2022/04/16 00:00:47;;;;;;;;;;;7.70;99.90;;;;;;5000966;28;19926;-69
2022/04/16 00:03:15;;;;;;;;;;;7.90;99.90;;;;;;4990527;28;19925;-69
2022/04/16 00:05:41;;;;;;;;;;;8.00;99.90;;;;;;5001050;28;20012;-70
2022/04/16 00:08:06;;;;;;;;;;;7.50;99.90;;;;;;5006380;28;19995;-69
2022/04/16 00:10:33;;;;;;;;;;;7.40;99.90;;;;;;5001476;28;20431;-69
2022/04/16 00:12:59;;;;;;;;;;;7.50;99.90;;;;;;4997372;28;20368;-69
2022/04/16 00:15:26;;;;;;;;;;;7.70;99.90;;;;;;4996675;28;19976;-69
2022/04/16 00:17:52;;;;;;;;;;;7.30;99.90;;;;;;5002072;28;20019;-69
2022/04/16 00:20:18;;;;;;;;;;;7.50;99.90;;;;;;5004186;28;19926;-69
2022/04/16 00:22:43;;;;;;;;;;;7.20;99.90;;;;;;5004369;28;19932;-69
2022/04/16 00:25:10;;;;;;;;;;;7.10;99.90;;;;;;4996739;28;20800;-69
2022/04/16 00:27:35;;;;;;;;;;;7.10;99.90;;;;;;4995115;28;19926;-69
2022/04/16 00:30:02;;;;;;;;;;;7.00;99.90;;;;;;4995526;28;19932;-69
2022/04/16 00:32:28;;;;;;;;;;;7.00;99.90;;;;;;5001968;28;20051;-69
2022/04/16 00:34:53;;;;;;;;;;;6.90;99.90;;;;;;4999202;28;20062;-68
2022/04/16 00:37:19;;;;;;;;;;;6.90;99.90;;;;;;5001854;28;20028;-69
2022/04/16 00:39:45;;;;;;;;;;;7.10;99.90;;;;;;4996917;28;19925;-69
2022/04/16 00:42:11;;;;;;;;;;;6.80;99.90;;;;;;5008135;28;19929;-69
2022/04/16 00:44:36;;;;;;;;;;;6.90;99.90;;;;;;4998438;28;19922;-69
2022/04/16 00:47:02;;;;;;;;;;;6.90;99.90;;;;;;5000867;28;19980;-69
2022/04/16 00:49:27;;;;;;;;;;;6.90;99.90;;;;;;5008396;28;20399;-69
2022/04/16 00:51:53;;;;;;;;;;;6.90;99.90;;;;;;5001317;28;19925;-69
2022/04/16 00:54:18;;;;;;;;;;;6.90;99.90;;;;;;4993464;28;19932;-69
2022/04/16 00:56:44;;;;;;;;;;;6.90;99.90;;;;;;4998174;28;19932;-69
2022/04/16 00:59:09;;;;;;;;;;;7.00;99.90;;;;;;5010601;28;19925;-68
2022/04/16 01:01:35;;;;;;;;;;;6.90;99.90;;;;;;5005121;28;19960;-69
2022/04/16 01:04:01;;;;;;;;;;;6.90;99.90;;;;;;5002467;28;20307;-69
2022/04/16 01:06:36;;;;;;;;;;;6.90;99.90;;;;;;5009759;28;20021;-71
2022/04/16 01:09:02;;;;;;;;;;;6.90;99.90;;;;;;5003980;28;19933;-69
2022/04/16 01:11:28;;;;;;;;;;;7.50;99.90;;;;;;5000146;28;19925;-69
2022/04/16 01:13:53;;;;;;;;;;;6.80;99.90;;;;;;5007312;28;19933;-68
2022/04/16 01:16:19;;;;;;;;;;;6.80;99.90;;;;;;5006622;28;19930;-69
2022/04/16 01:18:47;;;;;;;;;;;7.70;99.90;;;;;;5001796;28;19930;-69
2022/04/16 01:21:13;;;;;;;;;;;6.80;99.90;;;;;;5003396;28;19951;-69
2022/04/16 01:23:39;;;;;;;;;;;6.90;99.90;;;;;;5005026;28;19925;-69
2022/04/16 01:26:05;;;;;;;;;;;5.90;99.90;;;;;;5006984;28;20389;-69
2022/04/16 01:28:30;;;;;;;;;;;6.90;99.90;;;;;;4998885;28;19936;-68
2022/04/16 01:30:56;;;;;;;;;;;7.10;99.90;;;;;;5000025;28;20008;-68
2022/04/16 01:33:22;;;;;;;;;;;6.80;99.90;;;;;;5005493;28;20391;-68
2022/04/16 01:35:53;;;;;;;;;;;6.80;99.90;;;;;;4998160;28;19940;-69
2022/04/16 01:38:19;;;;;;;;;;;6.80;99.90;;;;;;5002887;28;19926;-69
2022/04/16 01:40:44;;;;;;;;;;;7.90;99.90;;;;;;4998288;28;19925;-67
2022/04/16 01:43:10;;;;;;;;;;;6.70;99.90;;;;;;5003274;28;19926;-69
2022/04/16 01:45:35;;;;;;;;;;;6.70;99.90;;;;;;4997981;28;19932;-68
2022/04/16 01:48:01;;;;;;;;;;;6.60;99.90;;;;;;5000609;28;20024;-68
2022/04/16 01:50:27;;;;;;;;;;;6.60;99.90;;;;;;5002562;28;20004;-70
2022/04/16 01:52:53;;;;;;;;;;;6.60;99.90;;;;;;4984398;28;20587;-69
2022/04/16 01:55:19;;;;;;;;;;;6.60;99.90;;;;;;5009006;28;20355;-70
2022/04/16 01:57:45;;;;;;;;;;;6.70;99.90;;;;;;4999430;28;20000;-68
2022/04/16 02:00:14;;;;;;;;;;;6.70;99.90;;;;;;5004839;28;19929;-69
2022/04/16 02:02:41;;;;;;;;;;;6.70;99.90;;;;;;5009266;28;20339;-67
2022/04/16 02:05:07;;;;;;;;;;;6.60;99.90;;;;;;5004215;28;19969;-69
2022/04/16 02:07:32;;;;;;;;;;;6.60;99.90;;;;;;5002960;28;19932;-69
2022/04/16 02:09:58;;;;;;;;;;;6.60;99.90;;;;;;5003413;28;20263;-68
2022/04/16 02:12:23;;;;;;;;;;;6.50;99.90;;;;;;4999473;28;19929;-69
2022/04/16 02:14:49;;;;;;;;;;;6.50;99.90;;;;;;5004688;28;19925;-69
2022/04/16 02:17:14;;;;;;;;;;;6.80;99.90;;;;;;5005165;28;19932;-69
2022/04/16 02:19:41;;;;;;;;;;;6.50;99.90;;;;;;4994818;28;19926;-69
2022/04/16 02:22:07;;;;;;;;;;;6.50;99.90;;;;;;4996195;28;20514;-69
2022/04/16 02:24:33;;;;;;;;;;;7.60;99.90;;;;;;4996494;28;20119;-69
2022/04/16 02:26:58;;;;;;;;;;;6.60;99.90;;;;;;5017145;28;19949;-68
2022/04/16 02:29:24;;;;;;;;;;;6.60;99.90;;;;;;4997489;28;19936;-69
2022/04/16 02:31:49;;;;;;;;;;;6.70;99.90;;;;;;5012963;28;19937;-69
2022/04/16 02:34:16;;;;;;;;;;;6.80;99.90;;;;;;5003210;28;19937;-69
2022/04/16 02:36:43;;;;;;;;;;;8.10;99.90;;;;;;5005806;28;19926;-68
2022/04/16 02:39:08;;;;;;;;;;;7.00;99.90;;;;;;5000845;28;20000;-68
2022/04/16 02:41:34;;;;;;;;;;;7.10;99.90;;;;;;4999469;28;20012;-68
2022/04/16 02:44:00;;;;;;;;;;;7.20;99.90;;;;;;5003437;28;19929;-67
2022/04/16 02:49:10;;;;;;;;;;;7.30;99.90;;;;;;4995387;28;20371;-68
2022/04/16 02:51:35;;;;;;;;;;;7.40;99.90;;;;;;5003832;28;19925;-69
2022/04/16 02:54:01;;;;;;;;;;;7.50;99.90;;;;;;5007136;28;19921;-67
2022/04/16 02:56:29;;;;;;;;;;;7.80;99.90;;;;;;5002014;28;19921;-69
2022/04/16 02:58:55;;;;;;;;;;;7.60;99.90;;;;;;4999171;28;19929;-68
2022/04/16 03:01:20;;;;;;;;;;;7.60;99.90;;;;;;4998906;28;19953;-68
2022/04/16 03:03:46;;;;;;;;;;;7.70;99.90;;;;;;5008041;28;20351;-68
2022/04/16 03:06:11;;;;;;;;;;;7.70;99.90;;;;;;5003208;28;20415;-69
2022/04/16 03:08:37;;;;;;;;;;;7.70;99.90;;;;;;5007298;28;19921;-68
2022/04/16 03:11:04;;;;;;;;;;;7.70;99.90;;;;;;5003285;28;19945;-69
2022/04/16 03:13:30;;;;;;;;;;;7.80;99.90;;;;;;5006320;28;20410;-69
2022/04/16 03:18:39;;;;;;;;;;;7.70;99.90;;;;;;5008327;28;20363;-68
2022/04/16 03:21:06;;;;;;;;;;;7.80;99.90;;;;;;5002989;28;19925;-67
2022/04/16 03:23:31;;;;;;;;;;;7.80;99.90;;;;;;5001522;28;19921;-70
2022/04/16 03:25:59;;;;;;;;;;;8.40;99.90;;;;;;5008717;28;19921;-68
2022/04/16 03:28:25;;;;;;;;;;;7.80;99.90;;;;;;5002685;28;19928;-68
2022/04/16 03:30:50;;;;;;;;;;;7.80;99.90;;;;;;5002647;28;19921;-69
2022/04/16 03:33:16;;;;;;;;;;;7.80;99.90;;;;;;5009492;28;19964;-68
2022/04/16 03:35:41;;;;;;;;;;;7.80;99.90;;;;;;5008600;28;19921;-69
2022/04/16 03:38:07;;;;;;;;;;;7.80;99.90;;;;;;5002963;28;20004;-69
2022/04/16 03:40:33;;;;;;;;;;;7.70;99.90;;;;;;4999248;28;20004;-69
2022/04/16 03:42:59;;;;;;;;;;;7.70;99.90;;;;;;5009678;28;19925;-68
2022/04/16 03:45:29;;;;;;;;;;;8.00;99.90;;;;;;5001089;28;19921;-70
2022/04/16 03:47:57;;;;;;;;;;;7.60;99.90;;;;;;5011919;28;20012;-69
2022/04/16 03:50:23;;;;;;;;;;;7.60;99.90;;;;;;5012391;28;19976;-68
2022/04/16 03:52:49;;;;;;;;;;;7.60;99.90;;;;;;5004031;28;19960;-68
2022/04/16 04:00:51;;;;;;;;;;;7.50;99.90;;;;;;4998932;28;19922;-68
2022/04/16 04:03:17;;;;;;;;;;;7.50;99.90;;;;;;4992711;28;20015;-68
2022/04/16 04:05:48;;;;;;;;;;;7.50;99.90;;;;;;5007278;28;21241;-69
2022/04/16 04:08:14;;;;;;;;;;;7.50;99.90;;;;;;5003861;28;19922;-70
2022/04/16 04:10:39;;;;;;;;;;;7.40;99.90;;;;;;4998132;28;19922;-67
2022/04/16 04:13:05;;;;;;;;;;;7.40;99.90;;;;;;5010451;28;19921;-69
2022/04/16 04:15:31;;;;;;;;;;;7.40;99.90;;;;;;5014647;28;20359;-70
2022/04/16 04:17:58;;;;;;;;;;;7.40;99.90;;;;;;5001579;28;20375;-68
2022/04/16 04:20:24;;;;;;;;;;;7.40;99.90;;;;;;5002128;28;19925;-69
2022/04/16 04:22:49;;;;;;;;;;;7.30;99.90;;;;;;4998738;28;19976;-69
2022/04/16 04:25:15;;;;;;;;;;;7.30;99.90;;;;;;5013093;28;20831;-68
2022/04/16 04:27:40;;;;;;;;;;;7.30;99.90;;;;;;5005438;28;19976;-68
2022/04/16 04:30:06;;;;;;;;;;;7.30;99.90;;;;;;4998525;28;19922;-69
2022/04/16 04:32:32;;;;;;;;;;;7.30;99.90;;;;;;5014810;28;19974;-69
2022/04/16 04:34:57;;;;;;;;;;;7.70;99.90;;;;;;5008349;28;20060;-68
2022/04/16 04:37:23;;;;;;;;;;;7.30;99.90;;;;;;5008769;28;19928;-68
2022/04/16 04:39:49;;;;;;;;;;;7.30;99.90;;;;;;5006080;28;20390;-68
2022/04/16 04:42:28;;;;;;;;;;;7.30;99.90;;;;;;5008895;28;20020;-68
2022/04/16 04:44:54;;;;;;;;;;;7.20;99.90;;;;;;5003351;28;20008;-68
2022/04/16 04:47:20;;;;;;;;;;;7.20;99.90;;;;;;5002589;28;20012;-69
2022/04/16 04:49:46;;;;;;;;;;;7.20;99.90;;;;;;4996633;28;20526;-69
2022/04/16 04:52:26;;;;;;;;;;;7.20;99.90;;;;;;5013865;28;20077;-69
2022/04/16 04:54:52;;;;;;;;;;;7.20;99.90;;;;;;5001479;28;19929;-69
2022/04/16 04:57:18;;;;;;;;;;;7.20;99.90;;;;;;5008638;28;19995;-68
2022/04/16 04:59:43;;;;;;;;;;;7.20;99.90;;;;;;5009713;28;19921;-69
2022/04/16 05:02:09;;;;;;;;;;;7.20;99.90;;;;;;5006488;28;20005;-69
2022/04/16 05:04:35;;;;;;;;;;;7.20;99.90;;;;;;5006828;28;19992;-68
2022/04/16 05:07:01;;;;;;;;;;;7.20;99.90;;;;;;5019094;28;20364;-69
2022/04/16 05:09:27;;;;;;;;;;;8.20;99.90;;;;;;5023459;28;20027;-69
2022/04/16 05:11:52;;;;;;;;;;;7.20;99.90;;;;;;5000851;28;19929;-70
2022/04/16 05:14:20;;;;;;;;;;;7.20;99.90;;;;;;5006575;28;19929;-69
2022/04/16 05:16:46;;;;;;;;;;;7.30;99.90;;;;;;5011425;28;20283;-69
2022/04/16 05:19:12;;;;;;;;;;;7.30;99.90;;;;;;5020595;28;19925;-68
2022/04/16 05:21:37;;;;;;;;;;;7.30;99.90;;;;;;4995886;28;19922;-68
2022/04/16 05:24:06;;;;;;;;;;;7.40;99.90;;;;;;5010173;28;19928;-69
2022/04/16 05:26:32;;;;;;;;;;;7.30;99.90;;;;;;5006569;28;19922;-69
2022/04/16 05:28:57;;;;;;;;;;;7.30;99.90;;;;;;4999404;28;19929;-68
2022/04/16 05:31:26;;;;;;;;;;;8.90;99.90;;;;;;5000977;28;19928;-68
2022/04/16 05:36:36;;;;;;;;;;;7.40;99.90;;;;;;5011903;28;20303;-68
2022/04/16 05:39:02;;;;;;;;;;;7.40;99.90;;;;;;5013019;28;19922;-68
2022/04/16 05:41:27;;;;;;;;;;;7.30;99.90;;;;;;5013439;28;19929;-69
2022/04/16 05:43:53;;;;;;;;;;;7.40;99.90;;;;;;5007815;28;19992;-68
2022/04/16 05:46:19;;;;;;;;;;;7.50;99.90;;;;;;5014210;28;20295;-69
2022/04/16 05:48:44;;;;;;;;;;;8.30;99.90;;;;;;4999787;28;20025;-69
2022/04/16 05:51:10;;;;;;;;;;;7.60;99.90;;;;;;5007075;28;20016;-69
2022/04/16 05:53:36;;;;;;;;;;;7.60;99.90;;;;;;5007946;28;19921;-69
2022/04/16 05:56:02;;;;;;;;;;;7.60;99.90;;;;;;5004462;28;19929;-68
2022/04/16 05:58:28;;;;;;;;;;;7.60;99.90;;;;;;5016185;28;19921;-71
2022/04/16 06:00:54;;;;;;;;;;;7.50;99.90;;;;;;4999521;28;20028;-70
2022/04/16 06:03:20;;;;;;;;;;;7.50;99.90;;;;;;5022032;28;19921;-68
2022/04/16 06:05:46;;;;;;;;;;;7.90;99.90;;;;;;5017738;28;19921;-71
2022/04/16 06:08:11;;;;;;;;;;;7.60;99.90;;;;;;5013488;28;19921;-70
2022/04/16 06:10:37;;;;;;;;;;;7.60;99.90;;;;;;5013564;28;19921;-68
2022/04/16 06:13:03;;;;;;;;;;;7.60;99.90;;;;;;5013330;28;19946;-69
2022/04/16 06:15:29;;;;;;;;;;;7.60;99.90;;;;;;5005010;28;20330;-69
2022/04/16 06:17:54;;;;;;;;;;;7.80;99.90;;;;;;4993464;28;19921;-69
2022/04/16 06:20:20;;;;;;;;;;;7.60;99.90;;;;;;5006534;28;19925;-67
2022/04/16 06:22:46;;;;;;;;;;;7.60;99.90;;;;;;5004558;28;19928;-69
2022/04/16 06:25:12;;;;;;;;;;;7.70;99.90;;;;;;5016817;28;20364;-69
2022/04/16 06:27:38;;;;;;;;;;;7.70;99.90;;;;;;5033201;28;20016;-69
2022/04/16 06:30:05;;;;;;;;;;;8.10;99.90;;;;;;5014887;28;20016;-69
2022/04/16 06:32:30;;;;;;;;;;;8.60;99.90;;;;;;4999743;28;19928;-69
2022/04/16 06:34:56;;;;;;;;;;;9.10;99.90;;;;;;5000758;28;19921;-69
2022/04/16 06:37:21;;;;;;;;;;;9.30;99.90;;;;;;5002549;28;19922;-69
2022/04/16 06:39:47;;;;;;;;;;;9.60;99.90;;;;;;5000549;28;19977;-70
2022/04/16 06:42:13;;;;;;;;;;;9.60;99.90;;;;;;4992142;28;20016;-68
2022/04/16 06:44:38;;;;;;;;;;;9.60;99.90;;;;;;4999784;28;19925;-69
2022/04/16 06:47:04;;;;;;;;;;;9.40;99.90;;;;;;5010416;28;19928;-69
2022/04/16 06:49:29;;;;;;;;;;;9.20;99.90;;;;;;5011466;28;19921;-68
2022/04/16 06:51:55;;;;;;;;;;;9.20;99.90;;;;;;5012447;28;19921;-69
2022/04/16 06:54:20;;;;;;;;;;;9.50;99.90;;;;;;5013031;28;20004;-70
2022/04/16 06:56:46;;;;;;;;;;;10.20;99.90;;;;;;5011437;28;19921;-69
2022/04/16 06:59:11;;;;;;;;;;;10.70;99.90;;;;;;5012412;28;19922;-68
2022/04/16 07:01:37;;;;;;;;;;;11.00;99.90;;;;;;4994990;28;19922;-69
2022/04/16 07:04:02;;;;;;;;;;;11.00;99.90;;;;;;5013724;28;19921;-69
2022/04/16 07:06:28;;;;;;;;;;;10.90;99.90;;;;;;5000136;28;20245;-69
2022/04/16 07:08:53;;;;;;;;;;;10.80;99.90;;;;;;5008262;28;19925;-69
2022/04/16 07:11:19;;;;;;;;;;;10.50;99.90;;;;;;5011566;28;19921;-69
2022/04/16 07:13:45;;;;;;;;;;;10.40;99.90;;;;;;5008253;28;19921;-68
2022/04/16 07:16:10;;;;;;;;;;;10.60;99.90;;;;;;5010624;28;19925;-69
2022/04/16 07:18:36;;;;;;;;;;;10.40;99.90;;;;;;5007652;28;19921;-69
2022/04/16 07:21:01;;;;;;;;;;;10.60;99.90;;;;;;5003858;28;19922;-69
2022/04/16 07:23:27;;;;;;;;;;;10.20;99.90;;;;;;5003760;28;19952;-68
2022/04/16 07:25:56;;;;;;;;;;;10.20;99.90;;;;;;5012917;28;19975;-70
2022/04/16 07:28:21;;;;;;;;;;;10.20;99.90;;;;;;5006810;28;19929;-70
2022/04/16 07:30:48;;;;;;;;;;;10.10;99.90;;;;;;5004862;28;19945;-68
2022/04/16 07:33:14;;;;;;;;;;;10.20;99.90;;;;;;5009643;28;19921;-69
2022/04/16 07:35:40;;;;;;;;;;;10.30;99.90;;;;;;5011283;28;20546;-70
2022/04/16 07:38:06;;;;;;;;;;;10.20;99.90;;;;;;5012410;28;20146;-69
2022/04/16 07:40:31;;;;;;;;;;;10.20;99.90;;;;;;5011398;28;19993;-69
2022/04/16 07:42:58;;;;;;;;;;;10.50;99.90;;;;;;5012216;28;19929;-68
2022/04/16 07:45:23;;;;;;;;;;;10.40;99.90;;;;;;4997652;28;19922;-69
2022/04/16 07:47:49;;;;;;;;;;;10.30;99.90;;;;;;4998655;28;20025;-69
2022/04/16 07:50:16;;;;;;;;;;;10.30;99.90;;;;;;5013176;28;19928;-70
2022/04/16 07:52:42;;;;;;;;;;;10.30;99.90;;;;;;5018612;28;19921;-68
2022/04/16 07:55:08;;;;;;;;;;;10.40;99.90;;;;;;5000097;28;19922;-70
2022/04/16 07:57:33;;;;;;;;;;;10.40;99.90;;;;;;5001976;28;19932;-70
2022/04/16 07:59:59;;;;;;;;;;;10.40;99.90;;;;;;5006278;28;20357;-69
2022/04/16 08:02:24;;;;;;;;;;;10.30;99.90;;;;;;5018918;28;19922;-69
2022/04/16 08:04:50;;;;;;;;;;;10.40;99.90;;;;;;5018874;28;19921;-69
2022/04/16 08:07:15;;;;;;;;;;;10.60;99.90;;;;;;5018341;28;19921;-69
2022/04/16 08:09:41;;;;;;;;;;;10.50;99.90;;;;;;5017789;28;19929;-69
2022/04/16 08:12:07;;;;;;;;;;;10.60;99.90;;;;;;5018638;28;19928;-69
2022/04/16 08:14:33;;;;;;;;;;;10.60;99.90;;;;;;5029901;28;19929;-70
2022/04/16 08:16:59;;;;;;;;;;;10.70;99.90;;;;;;4999348;28;19922;-69
2022/04/16 08:19:24;;;;;;;;;;;10.80;99.90;;;;;;5013831;28;19952;-69
2022/04/16 08:21:50;;;;;;;;;;;10.90;99.90;;;;;;5008155;28;19929;-70
2022/04/16 08:26:56;;;;;;;;;;;10.80;99.90;;;;;;5000887;28;19948;-71
2022/04/16 08:29:22;;;;;;;;;;;10.90;99.90;;;;;;5026677;28;20340;-70
2022/04/16 08:31:48;;;;;;;;;;;11.10;99.90;;;;;;4998951;28;20202;-70
2022/04/16 08:34:15;;;;;;;;;;;11.30;99.90;;;;;;5013741;28;20226;-70
2022/04/16 08:36:41;;;;;;;;;;;11.40;99.90;;;;;;5017912;28;19975;-69
2022/04/16 08:39:06;;;;;;;;;;;11.40;99.90;;;;;;5006464;28;19925;-69
2022/04/16 08:41:36;;;;;;;;;;;11.50;99.90;;;;;;4999111;28;19928;-69
2022/04/16 08:44:02;;;;;;;;;;;11.50;99.90;;;;;;5015775;28;19928;-71
2022/04/16 08:46:30;;;;;;;;;;;11.60;99.50;;;;;;5018002;28;19921;-70
2022/04/16 08:48:57;;;;;;;;;;;11.70;98.70;;;;;;5018498;28;20020;-70
2022/04/16 08:51:23;;;;;;;;;;;11.80;99.10;;;;;;5017898;28;20260;-70
2022/04/16 08:53:48;;;;;;;;;;;12.00;97.50;;;;;;5003593;28;20008;-71
2022/04/16 08:56:14;;;;;;;;;;;12.10;96.30;;;;;;5018494;28;20360;-69
2022/04/16 08:58:39;;;;;;;;;;;12.20;92.80;;;;;;5018060;28;19921;-68
2022/04/16 09:01:05;;;;;;;;;;;12.30;92.50;;;;;;5016163;28;19921;-69
2022/04/16 09:03:34;;;;;;;;;;;12.30;91.60;;;;;;5027633;28;19921;-68
2022/04/16 09:06:03;;;;;;;;;;;12.40;91.40;;;;;;5013321;28;20322;-68
2022/04/16 09:08:29;;;;;;;;;;;12.50;90.60;;;;;;5014879;28;19922;-68
2022/04/16 09:11:11;;;;;;;;;;;12.50;81.50;;;;;;5011678;28;19929;-69
2022/04/16 09:13:40;;;;;;;;;;;12.50;84.70;;;;;;5022198;28;19922;-69
2022/04/16 09:16:06;;;;;;;;;;;12.70;88.00;;;;;;5029123;28;19988;-70
2022/04/16 09:18:54;;;;;;;;;;;12.70;82.50;;;;;;5014329;28;19988;-69
2022/04/16 09:21:23;;;;;;;;;;;12.80;80.70;;;;;;5013168;28;19927;-69
2022/04/16 09:23:51;;;;;;;;;;;12.90;80.70;;;;;;4995556;28;19971;-70
2022/04/16 09:26:27;;;;;;;;;;;13.00;77.70;;;;;;4995974;28;19932;-71
2022/04/16 09:28:53;;;;;;;;;;;13.20;81.60;;;;;;5011751;28;20284;-69
2022/04/16 09:31:24;;;;;;;;;;;13.20;79.10;;;;;;5006294;28;19928;-70
2022/04/16 09:33:49;;;;;;;;;;;13.10;76.80;;;;;;5014127;28;19928;-69
2022/04/16 09:36:22;;;;;;;;;;;13.20;72.30;;;;;;5014507;28;19921;-69
2022/04/16 09:38:48;;;;;;;;;;;13.10;68.40;;;;;;5013825;28;19921;-68
2022/04/16 09:41:14;;;;;;;;;;;13.00;69.90;;;;;;5014339;28;19944;-69
2022/04/16 09:43:39;;;;;;;;;;;13.20;70.00;;;;;;5013839;28;19992;-67
2022/04/16 09:46:12;;;;;;;;;;;13.40;69.00;;;;;;5013670;28;20371;-69
2022/04/16 09:48:37;;;;;;;;;;;13.50;67.70;;;;;;5008637;28;19975;-69
2022/04/16 09:51:06;;;;;;;;;;;13.60;68.80;;;;;;5013450;28;19921;-69
2022/04/16 09:53:36;;;;;;;;;;;13.50;64.40;;;;;;5013880;28;20382;-68
2022/04/16 09:56:02;;;;;;;;;;;13.60;66.00;;;;;;5014108;28;19965;-70
2022/04/16 09:58:37;;;;;;;;;;;13.90;66.10;;;;;;5015045;28;20466;-67
2022/04/16 10:01:03;;;;;;;;;;;14.10;65.40;;;;;;4994075;28;20284;-69
2022/04/16 10:03:29;;;;;;;;;;;14.20;64.90;;;;;;4994326;28;20321;-69
2022/04/16 10:05:59;;;;;;;;;;;14.00;63.80;;;;;;5003481;28;20401;-69
2022/04/16 10:08:27;;;;;;;;;;;14.10;63.70;;;;;;5013980;28;19929;-70
2022/04/16 10:10:55;;;;;;;;;;;14.30;63.30;;;;;;5014091;28;19921;-68
2022/04/16 10:13:22;;;;;;;;;;;14.40;63.20;;;;;;5013839;28;19960;-69
2022/04/16 10:15:57;;;;;;;;;;;14.40;61.20;;;;;;5012212;28;19983;-68
2022/04/16 10:18:23;;;;;;;;;;;14.50;62.70;;;;;;5028615;28;19929;-69
2022/04/16 10:20:49;;;;;;;;;;;14.50;61.80;;;;;;5013177;28;20264;-69
2022/04/16 10:23:23;;;;;;;;;;;14.80;60.40;;;;;;5029265;28;19972;-70
2022/04/16 10:25:49;;;;;;;;;;;15.00;60.00;;;;;;5012440;28;19921;-69
2022/04/16 10:28:20;;;;;;;;;;;15.50;59.80;;;;;;5012962;28;19927;-68
2022/04/16 10:30:50;;;;;;;;;;;15.70;58.60;;;;;;5013174;28;19975;-69
2022/04/16 10:33:17;;;;;;;;;;;15.80;57.00;;;;;;5002502;28;20264;-69
2022/04/16 10:35:56;;;;;;;;;;;15.40;55.50;;;;;;5012870;28;19936;-69
2022/04/16 10:38:23;;;;;;;;;;;15.70;58.00;;;;;;5013260;28;20013;-68
2022/04/16 10:40:57;;;;;;;;;;;15.70;56.10;;;;;;5013708;28;19969;-68
2022/04/16 10:43:33;;;;;;;;;;;15.60;53.70;;;;;;5013033;28;20019;-68
2022/04/16 10:46:05;;;;;;;;;;;15.50;54.30;;;;;;5011494;28;19968;-68
2022/04/16 10:48:32;;;;;;;;;;;15.80;56.30;;;;;;5013264;28;20371;-68
2022/04/16 10:50:58;;;;;;;;;;;16.20;55.40;;;;;;5010724;28;20268;-68
2022/04/16 10:53:27;;;;;;;;;;;16.60;55.60;;;;;;5012893;28;20012;-68
2022/04/16 10:55:53;;;;;;;;;;;16.70;53.00;;;;;;5012828;28;19925;-70
2022/04/16 10:58:26;;;;;;;;;;;16.50;52.00;;;;;;5023135;28;19932;-69
2022/04/16 11:00:51;;;;;;;;;;;16.60;52.40;;;;;;5007457;28;19928;-70
2022/04/16 11:03:33;;;;;;;;;;;16.70;51.90;;;;;;5013052;28;19925;-69
2022/04/16 11:06:03;;;;;;;;;;;16.80;51.40;;;;;;5010899;28;20299;-68
2022/04/16 11:08:28;;;;;;;;;;;16.80;52.40;;;;;;5009753;28;19921;-70
2022/04/16 11:10:58;;;;;;;;;;;16.80;52.00;;;;;;5002744;28;20372;-68
2022/04/16 11:13:24;;;;;;;;;;;16.80;49.60;;;;;;5006943;28;19928;-70
2022/04/16 11:15:51;;;;;;;;;;;17.00;50.80;;;;;;5012784;28;19922;-70
2022/04/16 11:18:18;;;;;;;;;;;17.10;53.00;;;;;;5012432;28;20037;-69
2022/04/16 11:20:52;;;;;;;;;;;17.60;51.40;;;;;;5010218;28;19921;-69
2022/04/16 11:23:18;;;;;;;;;;;17.60;49.10;;;;;;5012237;28;19975;-69
2022/04/16 11:34:15;;;;;;;;;;;18.20;50.50;;;;;;5005754;28;20386;-69
2022/04/16 11:36:41;;;;;;;;;;;18.60;50.60;;;;;;5008269;28;20387;-68
2022/04/16 11:39:15;;;;;;;;;;;18.60;48.60;;;;;;5009037;28;19926;-68
2022/04/16 11:41:46;;;;;;;;;;;18.40;46.80;;;;;;5008883;28;19925;-69
2022/04/16 11:44:11;;;;;;;;;;;18.50;48.40;;;;;;5008648;28;19931;-70
2022/04/16 11:46:41;;;;;;;;;;;18.60;50.80;;;;;;5008974;28;20015;-70
2022/04/16 11:49:07;;;;;;;;;;;18.60;48.00;;;;;;5007630;28;19991;-69
2022/04/16 11:51:36;;;;;;;;;;;18.70;49.20;;;;;;5003094;28;20023;-69
2022/04/16 11:54:02;;;;;;;;;;;18.80;47.00;;;;;;5008098;28;20012;-69
2022/04/16 11:56:27;;;;;;;;;;;18.80;46.90;;;;;;5009494;28;20060;-70
2022/04/16 11:58:53;;;;;;;;;;;18.60;43.50;;;;;;5004323;28;19973;-70
2022/04/16 12:01:20;;;;;;;;;;;18.90;47.30;;;;;;5014363;28;19926;-67
2022/04/16 12:03:45;;;;;;;;;;;18.60;42.90;;;;;;5004706;28;20072;-69
2022/04/16 12:06:11;;;;;;;;;;;18.70;46.30;;;;;;5001719;28;20027;-68
2022/04/16 12:08:39;;;;;;;;;;;18.80;44.70;;;;;;5008338;28;20391;-69
2022/04/16 12:11:05;;;;;;;;;;;19.00;45.20;;;;;;5009037;28;19925;-69
2022/04/16 12:13:37;;;;;;;;;;;19.10;44.40;;;;;;5007332;28;19925;-68
2022/04/16 12:16:04;;;;;;;;;;;19.10;45.20;;;;;;5007688;28;20382;-69
2022/04/16 12:18:34;;;;;;;;;;;19.20;43.90;;;;;;5008092;28;19940;-69
2022/04/16 12:21:05;;;;;;;;;;;19.10;41.90;;;;;;4997347;28;19929;-68
2022/04/16 12:23:30;;;;;;;;;;;19.00;42.70;;;;;;5006557;28;19926;-69
2022/04/16 12:26:03;;;;;;;;;;;19.20;45.00;;;;;;4997377;28;20024;-70
2022/04/16 12:28:31;;;;;;;;;;;19.60;44.20;;;;;;5006934;28;20012;-68
2022/04/16 12:30:57;;;;;;;;;;;19.60;43.50;;;;;;5019014;28;19929;-68
2022/04/16 12:33:25;;;;;;;;;;;19.70;43.50;;;;;;5003486;28;19931;-70
2022/04/16 12:35:55;;;;;;;;;;;19.20;41.80;;;;;;5002379;28;19926;-68
2022/04/16 12:38:21;;;;;;;;;;;19.20;42.70;;;;;;5005151;28;19925;-69
2022/04/16 12:40:47;;;;;;;;;;;19.20;43.00;;;;;;5007900;28;19922;-70
2022/04/16 12:43:12;;;;;;;;;;;19.50;44.10;;;;;;5011733;28;20320;-69
2022/04/16 12:45:38;;;;;;;;;;;19.50;42.10;;;;;;5004278;28;19930;-68
2022/04/16 12:48:04;;;;;;;;;;;19.90;42.30;;;;;;5002878;28;19929;-69
2022/04/16 12:50:31;;;;;;;;;;;20.20;43.20;;;;;;4999339;28;19926;-70
2022/04/16 12:52:57;;;;;;;;;;;20.50;42.60;;;;;;5011787;28;19968;-69
2022/04/16 12:55:22;;;;;;;;;;;20.40;42.80;;;;;;5011852;28;19921;-69
2022/04/16 12:57:48;;;;;;;;;;;20.30;41.10;;;;;;5010433;28;19921;-69
2022/04/16 13:00:15;;;;;;;;;;;20.10;41.30;;;;;;5006432;28;19931;-69
2022/04/16 13:02:42;;;;;;;;;;;20.30;42.80;;;;;;5007547;28;19947;-69
2022/04/16 13:05:08;;;;;;;;;;;20.10;40.20;;;;;;5008657;28;19932;-68
2022/04/16 13:07:35;;;;;;;;;;;20.50;42.00;;;;;;4992004;28;19991;-70
2022/04/16 13:10:00;;;;;;;;;;;20.90;41.00;;;;;;4998838;28;20427;-69
2022/04/16 13:12:26;;;;;;;;;;;21.00;40.10;;;;;;5010251;28;19944;-69
2022/04/16 13:14:51;;;;;;;;;;;20.70;40.30;;;;;;5010841;28;19929;-69
2022/04/16 13:17:17;;;;;;;;;;;20.50;40.70;;;;;;5011303;28;19921;-69
2022/04/16 13:19:42;;;;;;;;;;;20.00;40.10;;;;;;5008038;28;19932;-69
2022/04/16 13:22:08;;;;;;;;;;;20.20;40.80;;;;;;5005499;28;19932;-70
2022/04/16 13:24:36;;;;;;;;;;;20.40;41.10;;;;;;4997647;28;19925;-71
2022/04/16 13:27:03;;;;;;;;;;;20.50;41.10;;;;;;4991996;28;19961;-69
2022/04/16 13:29:29;;;;;;;;;;;20.70;40.90;;;;;;4992262;28;20376;-69
2022/04/16 13:31:56;;;;;;;;;;;20.80;40.10;;;;;;4997104;28;19932;-70
2022/04/16 13:34:22;;;;;;;;;;;20.60;40.60;;;;;;5011926;28;19964;-69
2022/04/16 13:36:48;;;;;;;;;;;20.70;40.40;;;;;;5006421;28;19969;-69
2022/04/16 13:42:00;;;;;;;;;;;20.70;39.50;;;;;;5010011;28;20025;-69
2022/04/16 13:44:26;;;;;;;;;;;20.30;40.20;;;;;;5002173;28;20288;-70
2022/04/16 13:46:53;;;;;;;;;;;20.10;41.30;;;;;;5003466;28;20738;-68
2022/04/16 13:49:18;;;;;;;;;;;20.00;41.00;;;;;;4990849;28;19925;-68
2022/04/16 13:51:44;;;;;;;;;;;20.00;41.10;;;;;;5006344;28;20480;-68
2022/04/16 13:54:10;;;;;;;;;;;20.20;40.80;;;;;;5011440;28;19932;-70
2022/04/16 13:56:36;;;;;;;;;;;20.70;41.30;;;;;;5011523;28;19995;-69
2022/04/16 13:59:02;;;;;;;;;;;20.80;40.30;;;;;;5010669;28;19932;-70
2022/04/16 14:01:28;;;;;;;;;;;20.80;40.50;;;;;;4994126;28;19973;-69
2022/04/16 14:03:54;;;;;;;;;;;20.40;40.70;;;;;;5009334;28;20044;-69
2022/04/16 14:06:20;;;;;;;;;;;20.00;40.90;;;;;;5024960;28;19941;-71
2022/04/16 14:08:45;;;;;;;;;;;19.80;41.10;;;;;;5026177;28;19933;-70
2022/04/16 14:11:12;;;;;;;;;;;19.10;40.30;;;;;;5007896;28;19931;-69
2022/04/16 14:13:39;;;;;;;;;;;18.60;41.80;;;;;;5002132;28;19926;-69
2022/04/16 14:16:04;;;;;;;;;;;17.80;43.70;;;;;;5008943;28;19933;-69
2022/04/16 14:18:30;;;;;;;;;;;17.20;44.00;;;;;;5025722;28;20289;-68
2022/04/16 14:20:56;;;;;;;;;;;16.70;44.80;;;;;;5007407;28;19932;-69
2022/04/16 14:23:22;;;;;;;;;;;16.10;45.00;;;;;;4998905;28;19925;-69
2022/04/16 14:25:48;;;;;;;;;;;15.90;46.10;;;;;;5007477;28;19932;-69
2022/04/16 14:28:13;;;;;;;;;;;15.70;46.80;;;;;;5009095;28;19945;-69
2022/04/16 14:30:39;;;;;;;;;;;15.30;46.50;;;;;;5004228;28;19925;-69
2022/04/16 14:33:08;;;;;;;;;;;15.10;46.30;;;;;;5009006;28;20334;-69
2022/04/16 14:35:34;;;;;;;;;;;14.90;47.50;;;;;;4992223;28;20379;-67
2022/04/16 14:37:59;;;;;;;;;;;14.80;47.30;;;;;;5008385;28;19948;-69
2022/04/16 14:40:25;;;;;;;;;;;14.80;47.20;;;;;;4997385;28;19980;-68
2022/04/16 14:42:51;;;;;;;;;;;14.60;47.70;;;;;;5005751;28;19925;-69
2022/04/16 14:45:17;;;;;;;;;;;14.60;47.90;;;;;;4999713;28;20402;-70
2022/04/16 14:47:44;;;;;;;;;;;14.60;48.50;;;;;;5009795;28;20335;-69